Elton, Wisconsin
Current Conditions -  °F | °C
As of 11:15 AM on Sunday 21 Dec 2014 (Local Time) from KAIG Reporting Station
Moderate Fog Moderate Fog  
Wind Chill: 19°   Ceiling: 300
Heat Index: 28°   Visibility: 0.25mi
Dew Point: 28°   Wind: 10mph
Humidity: 100%   Direction: 160°SSE
Pressure: 30"   Gusts: NA
Location:  45.17°N, 88.89°W
Report Text: KAIG 211715Z AUTO 16009KT 1/4SM FZFG OVC003 M02/M02 A3000 RMK AO2 T10201020
Loading
Personal Weather Stations






























Interactive Weather Map New forecast layout! Learn more

10-Day Weather Forecast

Advertisements
Track Severe Weather on mobile